createdAt,value
2023-01-21T00:03:43.355Z,96.15
2023-01-21T00:08:45.488Z,96.15
2023-01-21T00:13:44.641Z,95.90
2023-01-21T00:18:46.737Z,96.21
2023-01-21T00:23:46.872Z,95.06
2023-01-21T00:28:46.020Z,95.73
2023-01-21T00:33:47.138Z,95.52
2023-01-21T00:38:49.297Z,96.36
2023-01-21T00:43:49.439Z,96.47
2023-01-21T00:48:48.621Z,96.93
2023-01-21T00:53:49.717Z,95.84
2023-01-21T00:58:51.838Z,96.41
2023-01-21T01:03:51.033Z,96.09
2023-01-21T01:08:51.190Z,96.51
2023-01-21T01:13:52.320Z,96.15
2023-01-21T01:18:53.461Z,96.15
2023-01-21T01:23:54.669Z,96.47
2023-01-21T01:28:55.837Z,96.67
2023-01-21T01:33:57.055Z,96.67
2023-01-21T01:38:58.248Z,95.84
2023-01-21T01:43:59.356Z,95.31
2023-01-21T01:49:00.561Z,95.73
2023-01-21T01:54:01.757Z,95.62
2023-01-21T01:59:02.993Z,95.37
2023-01-21T02:04:04.244Z,94.95
2023-01-21T02:09:05.483Z,95.06
2023-01-21T02:14:06.699Z,94.95
2023-01-21T02:19:08.145Z,94.85
2023-01-21T02:24:09.372Z,94.95
2023-01-21T02:29:10.593Z,94.60
2023-01-21T02:34:11.813Z,94.81
2023-01-21T02:39:13.000Z,95.23
2023-01-21T02:44:14.180Z,95.27
2023-01-21T02:49:15.391Z,95.37
2023-01-21T02:54:16.690Z,95.48
2023-01-21T02:59:17.859Z,95.54
2023-01-21T03:04:18.076Z,95.12
2023-01-21T03:09:19.301Z,95.33
2023-01-21T03:14:20.552Z,95.54
2023-01-21T03:19:21.858Z,96.47
2023-01-21T03:24:23.073Z,96.63
2023-01-21T03:29:24.325Z,96.63
2023-01-21T03:34:25.579Z,97.09
2023-01-21T03:39:26.790Z,97.62
2023-01-21T03:44:28.016Z,97.52
2023-01-21T03:49:29.225Z,97.30
2023-01-21T03:54:30.467Z,97.09
2023-01-21T03:59:31.679Z,97.16
2023-01-21T04:04:32.911Z,97.05
2023-01-21T04:09:34.100Z,96.63
2023-01-21T04:14:35.330Z,96.63
2023-01-21T04:19:36.557Z,97.05
2023-01-21T04:24:37.724Z,96.84
2023-01-21T04:29:38.980Z,97.41
2023-01-21T04:34:40.239Z,97.26
2023-01-21T04:39:41.459Z,97.20
2023-01-21T04:44:42.706Z,96.94
2023-01-21T04:49:43.928Z,96.00
2023-01-21T04:54:45.098Z,95.94
2023-01-21T04:59:46.292Z,96.36
2023-01-21T05:04:47.465Z,96.15
2023-01-21T05:09:48.683Z,96.78
2023-01-21T05:14:50.886Z,97.52
2023-01-21T05:19:50.039Z,97.41
2023-01-21T05:24:51.216Z,97.52
2023-01-21T05:29:52.445Z,98.14
2023-01-21T05:34:53.575Z,97.83
2023-01-21T05:39:54.751Z,97.45
2023-01-21T05:44:55.904Z,96.51
2023-01-21T05:49:57.109Z,97.03
2023-01-21T05:55:02.165Z,97.03
2023-01-21T05:59:57.895Z,97.03
2023-01-21T06:04:59.129Z,96.36
2023-01-21T06:10:00.299Z,95.21
2023-01-21T06:15:01.548Z,94.47
2023-01-21T06:20:03.371Z,95.15
2023-01-21T06:25:06.944Z,95.36
2023-01-21T06:30:02.171Z,96.19
2023-01-21T06:35:03.395Z,96.51
2023-01-21T06:40:04.654Z,96.93
2023-01-21T06:45:05.851Z,96.47
2023-01-21T06:50:07.062Z,96.25
2023-01-21T06:55:08.359Z,95.62
2023-01-21T07:00:09.577Z,95.92
2023-01-21T07:05:10.802Z,95.98
2023-01-21T07:10:12.041Z,95.25
2023-01-21T07:15:13.286Z,95.50
2023-01-21T07:20:14.513Z,95.72
2023-01-21T07:25:17.106Z,95.19
2023-01-21T07:30:16.769Z,95.50
2023-01-21T07:35:16.368Z,94.04
2023-01-21T07:40:15.687Z,93.51
2023-01-21T07:45:17.172Z,93.62
2023-01-21T07:50:16.490Z,92.77
2023-01-21T07:55:18.018Z,93.34
2023-01-21T08:00:17.435Z,93.72
2023-01-21T08:05:18.962Z,92.63
2023-01-21T08:10:17.657Z,91.75
2023-01-21T08:15:19.261Z,89.97
2023-01-21T08:20:18.660Z,89.65
2023-01-21T08:25:19.852Z,91.20
2023-01-21T08:30:21.152Z,92.08
2023-01-21T08:35:23.364Z,92.54
2023-01-21T08:40:22.596Z,92.25
2023-01-21T08:45:23.931Z,91.20
2023-01-21T08:50:25.151Z,91.27
2023-01-21T08:55:26.351Z,89.54
2023-01-21T09:00:27.657Z,89.97
2023-01-21T09:05:28.875Z,89.34
2023-01-21T09:10:30.180Z,90.28
2023-01-21T09:15:31.440Z,90.11
2023-01-21T09:20:31.678Z,91.22
2023-01-21T09:25:32.900Z,90.53
2023-01-21T09:30:34.125Z,90.57
2023-01-21T09:35:38.247Z,90.95
2023-01-21T09:40:36.360Z,90.38
2023-01-21T09:45:36.535Z,89.36
2023-01-21T09:50:35.997Z,89.97
2023-01-21T09:55:36.161Z,90.03
2023-01-21T10:00:35.313Z,91.33
2023-01-21T10:05:37.424Z,91.01
2023-01-21T10:10:36.589Z,90.91
2023-01-21T10:15:37.691Z,90.13
2023-01-21T10:20:38.802Z,90.45
2023-01-21T10:25:39.964Z,88.71
2023-01-21T10:30:40.257Z,88.49
2023-01-21T10:35:42.433Z,88.49
2023-01-21T10:40:41.575Z,87.97
2023-01-21T10:45:42.873Z,88.60
2023-01-21T10:50:42.189Z,88.92
2023-01-21T10:55:43.341Z,88.81
2023-01-21T11:00:44.441Z,89.86
2023-01-21T11:05:45.567Z,89.65
2023-01-21T11:10:46.728Z,89.61
2023-01-21T11:15:47.923Z,89.86
2023-01-21T11:20:49.036Z,88.87
2023-01-21T11:25:50.158Z,87.79
2023-01-21T11:30:51.882Z,85.86
2023-01-21T11:35:51.217Z,85.55
2023-01-21T11:40:54.326Z,85.41
2023-01-21T11:45:53.460Z,84.00
2023-01-21T11:50:55.612Z,83.65
2023-01-21T11:55:55.792Z,83.23
2023-01-21T12:00:54.952Z,86.45
2023-01-21T12:05:57.131Z,87.23
2023-01-21T12:10:56.275Z,85.44
2023-01-21T12:15:58.416Z,85.34
2023-01-21T12:20:58.568Z,86.49
2023-01-21T12:25:57.711Z,86.49
2023-01-21T12:30:58.995Z,85.59
2023-01-21T12:36:00.259Z,85.61
2023-01-21T12:41:01.729Z,84.56
2023-01-21T12:46:00.876Z,85.55
2023-01-21T12:51:03.083Z,84.92
2023-01-21T12:56:02.914Z,84.08
2023-01-21T13:01:03.159Z,85.02
2023-01-21T13:06:02.335Z,83.77
2023-01-21T13:11:04.476Z,84.50
2023-01-21T13:16:04.659Z,83.35
2023-01-21T13:21:03.791Z,83.10
2023-01-21T13:26:05.941Z,83.42
2023-01-21T13:31:06.229Z,83.94
2023-01-21T13:36:05.470Z,83.52
2023-01-21T13:41:06.621Z,83.59
2023-01-21T13:46:07.823Z,83.69
2023-01-21T13:51:09.994Z,83.38
2023-01-21T13:56:10.142Z,82.23
2023-01-21T14:01:09.319Z,83.06
2023-01-21T14:06:11.481Z,83.17
2023-01-21T14:11:10.669Z,83.59
2023-01-21T14:16:11.880Z,82.96
2023-01-21T14:21:13.009Z,83.13
2023-01-21T14:26:14.251Z,84.11
2023-01-21T14:31:15.514Z,85.09
2023-01-21T14:36:16.696Z,85.41
2023-01-21T14:41:18.126Z,85.51
2023-01-21T14:46:19.420Z,85.72
2023-01-21T14:51:19.733Z,85.82
2023-01-21T14:56:21.045Z,86.35
2023-01-21T15:01:23.008Z,86.66
2023-01-21T15:06:23.396Z,87.39
2023-01-21T15:11:22.623Z,87.08
2023-01-21T15:16:23.869Z,87.08
2023-01-21T15:21:25.058Z,87.29
2023-01-21T15:26:27.307Z,87.08
2023-01-21T15:31:26.744Z,87.50
2023-01-21T15:36:26.026Z,88.02
2023-01-21T15:41:27.164Z,88.27
2023-01-21T15:46:28.551Z,88.75
2023-01-21T15:51:29.888Z,88.65
2023-01-21T15:56:31.162Z,88.86
2023-01-21T16:01:32.650Z,89.22
2023-01-21T16:06:31.934Z,89.53
2023-01-21T16:11:34.059Z,90.16
2023-01-21T16:16:33.528Z,90.16
2023-01-21T16:21:32.723Z,90.26
2023-01-21T16:26:34.032Z,89.73
2023-01-21T16:31:35.332Z,89.84
2023-01-21T16:36:36.702Z,90.16
2023-01-21T16:41:38.360Z,90.26
2023-01-21T16:46:37.895Z,90.78
2023-01-21T16:51:37.200Z,90.78
2023-01-21T16:56:37.573Z,91.09
2023-01-21T17:01:37.921Z,91.98
2023-01-21T17:06:38.570Z,92.35
2023-01-21T17:11:38.170Z,91.83
2023-01-21T17:16:39.318Z,92.25
2023-01-21T17:21:41.490Z,92.25
2023-01-21T17:26:45.976Z,93.02
2023-01-21T17:31:42.789Z,92.57
2023-01-21T17:36:42.812Z,92.40
2023-01-21T17:41:46.380Z,91.77
2023-01-21T17:46:44.476Z,92.57
2023-01-21T17:51:43.899Z,92.50
2023-01-21T17:56:45.630Z,92.50
2023-01-21T18:01:44.846Z,92.50
2023-01-21T18:06:46.331Z,92.77
2023-01-21T18:11:45.726Z,93.34
2023-01-21T18:16:48.154Z,95.06
2023-01-21T18:21:47.322Z,97.05
2023-01-21T18:26:48.453Z,96.94
2023-01-21T18:31:49.727Z,97.05
2023-01-21T18:36:51.043Z,96.63
2023-01-21T18:41:53.898Z,96.94
2023-01-21T18:46:54.225Z,97.30
2023-01-21T18:51:54.425Z,97.83
2023-01-21T18:56:53.851Z,98.25
2023-01-21T19:01:53.154Z,98.77
2023-01-21T19:06:55.633Z,99.19
2023-01-21T19:11:54.861Z,99.19
2023-01-21T19:16:56.080Z,98.67
2023-01-21T19:21:57.534Z,98.14
2023-01-21T19:26:56.859Z,97.52
2023-01-21T19:31:58.999Z,96.15
2023-01-21T19:36:59.367Z,95.31
2023-01-21T19:42:07.995Z,95.42
2023-01-21T19:47:04.792Z,94.79
2023-01-21T19:52:00.270Z,95.00
2023-01-21T19:56:59.483Z,94.58
2023-01-21T20:02:00.971Z,93.53
2023-01-21T20:07:02.081Z,93.53
2023-01-21T20:12:03.480Z,93.84
2023-01-21T20:17:00.973Z,93.95
2023-01-21T20:22:03.154Z,92.80
2023-01-21T20:27:02.603Z,92.38
2023-01-21T20:32:02.880Z,92.16
2023-01-21T20:37:04.215Z,91.22
2023-01-21T20:42:05.433Z,90.91
2023-01-21T20:47:08.839Z,90.91
2023-01-21T20:52:08.087Z,90.70
2023-01-21T20:57:08.676Z,90.28
2023-01-21T21:02:08.021Z,90.49
2023-01-21T21:07:10.566Z,89.97
2023-01-21T21:12:09.885Z,89.65
2023-01-21T21:17:12.143Z,89.65
2023-01-21T21:22:11.170Z,90.07
2023-01-21T21:27:12.698Z,89.54
2023-01-21T21:32:12.473Z,89.29
2023-01-21T21:37:12.791Z,88.56
2023-01-21T21:42:12.618Z,88.35
2023-01-21T21:47:13.134Z,87.76
2023-01-21T21:52:14.292Z,88.56
2023-01-21T21:57:15.687Z,87.51
2023-01-21T22:02:15.068Z,87.62
2023-01-21T22:07:16.289Z,88.14
2023-01-21T22:12:21.497Z,87.16
2023-01-21T22:17:17.752Z,87.16
2023-01-21T22:22:18.916Z,87.26
2023-01-21T22:27:20.108Z,87.68
2023-01-21T22:32:21.286Z,87.62
2023-01-21T22:37:22.483Z,87.30
2023-01-21T22:42:23.765Z,88.24
2023-01-21T22:47:24.905Z,88.04
2023-01-21T22:52:26.157Z,88.46
2023-01-21T22:57:27.395Z,88.56
2023-01-21T23:02:27.628Z,88.56
2023-01-21T23:07:29.784Z,88.73
2023-01-21T23:12:27.955Z,88.94
2023-01-21T23:17:29.149Z,88.31
2023-01-21T23:22:30.301Z,88.52
2023-01-21T23:27:31.442Z,88.79
2023-01-21T23:32:33.690Z,88.52
2023-01-21T23:37:32.882Z,88.42
2023-01-21T23:42:33.994Z,88.62
2023-01-21T23:47:36.148Z,89.22
2023-01-21T23:52:35.283Z,88.21
2023-01-21T23:57:37.429Z,89.57
